Time;durP1;ratioP1;P1;durP2;ratioP2;P2;SDS_P1;SDS_P2;PMS_P1;PMS_P2;Temp;Humidity;BMP_temperature;BMP_pressure;BME280_temperature;BME280_humidity;BME280_pressure;Samples;Min_cycle;Max_cycle;Signal;HPM_P1;HPM_P2
2023/05/12 00:00:41;;;;;;;20.42;14.40;;;;;;;12.15;83.78;101001.06;10460000;28;20044;-72
2023/05/12 00:05:41;;;;;;;16.52;12.68;;;;;;;12.12;84.04;101004.06;10460268;28;20504;-72
2023/05/12 00:10:42;;;;;;;15.98;12.15;;;;;;;12.03;84.53;100992.53;10459511;28;20400;-72
2023/05/12 00:15:44;;;;;;;15.75;12.15;;;;;;;11.87;83.83;100979.16;10459707;28;20037;-72
2023/05/12 00:20:45;;;;;;;15.60;13.15;;;;;;;11.96;83.98;101007.47;10459112;28;20485;-72
2023/05/12 00:25:45;;;;;;;14.38;12.20;;;;;;;11.92;83.96;100995.50;10458400;28;20049;-72
2023/05/12 00:30:46;;;;;;;15.63;12.77;;;;;;;11.81;84.23;101001.06;10458402;28;20033;-72
2023/05/12 00:35:47;;;;;;;17.15;13.32;;;;;;;11.79;83.93;101011.88;10458018;28;20497;-71
2023/05/12 00:40:48;;;;;;;19.63;11.93;;;;;;;11.78;83.61;101025.34;10458649;28;20047;-72
2023/05/12 00:45:48;;;;;;;16.05;11.77;;;;;;;11.80;83.70;101028.69;10458268;28;20610;-72
2023/05/12 00:50:49;;;;;;;19.30;12.68;;;;;;;11.75;84.34;101026.50;10457955;28;20091;-72
2023/05/12 00:55:50;;;;;;;16.90;12.80;;;;;;;11.64;84.50;100997.50;10457534;28;20065;-72
2023/05/12 01:00:51;;;;;;;17.40;13.75;;;;;;;11.69;84.13;101019.13;10458085;28;20468;-72
2023/05/12 01:05:52;;;;;;;18.55;13.27;;;;;;;11.62;84.82;101026.09;10456643;28;20059;-72
2023/05/12 01:10:53;;;;;;;18.92;13.77;;;;;;;11.56;84.59;101013.44;10456594;28;20043;-72
2023/05/12 01:15:55;;;;;;;16.95;13.45;;;;;;;10.82;84.61;100921.72;10455526;28;20076;-72
2023/05/12 01:20:56;;;;;;;18.90;14.77;;;;;;;10.93;85.30;100934.75;10457273;28;20136;-72
2023/05/12 01:26:07;;;;;;;21.48;14.82;;;;;;;11.49;86.55;101025.72;10457198;28;20048;-72
2023/05/12 01:31:08;;;;;;;18.50;14.60;;;;;;;10.87;85.54;100948.66;10455901;28;20098;-72
2023/05/12 01:36:09;;;;;;;20.73;15.05;;;;;;;10.95;85.31;100976.16;10457061;28;20103;-73
2023/05/12 01:41:10;;;;;;;17.58;14.98;;;;;;;10.76;85.76;100948.91;10479201;28;20045;-72
2023/05/12 01:46:11;;;;;;;20.50;15.20;;;;;;;10.86;86.17;100985.06;10448597;28;20033;-72
2023/05/12 01:51:12;;;;;;;19.50;15.40;;;;;;;10.70;87.11;100987.56;10454642;28;20493;-72
2023/05/12 01:56:12;;;;;;;18.30;14.77;;;;;;;10.79;87.49;101005.25;10464039;28;20142;-72
2023/05/12 02:01:13;;;;;;;36.78;14.98;;;;;;;10.85;87.26;101001.13;10495087;28;20044;-71
2023/05/12 02:06:16;;;;;;;22.58;16.00;;;;;;;10.88;87.84;100999.00;10488629;28;20547;-75
2023/05/12 02:11:16;;;;;;;19.83;15.77;;;;;;;10.78;87.64;100990.28;10469243;28;20163;-72
2023/05/12 02:16:17;;;;;;;18.23;15.13;;;;;;;10.65;87.90;100990.69;10453076;28;20127;-72
2023/05/12 02:21:18;;;;;;;20.45;15.32;;;;;;;10.69;88.20;100985.91;10454583;28;20036;-72
2023/05/12 02:26:20;;;;;;;19.42;15.40;;;;;;;10.87;88.45;101010.63;10454437;28;20124;-71
2023/05/12 02:31:20;;;;;;;19.30;15.23;;;;;;;10.41;87.97;100922.25;10457036;28;20039;-72
2023/05/12 02:36:21;;;;;;;19.17;15.00;;;;;;;10.85;88.30;100986.00;10488932;28;20044;-72
2023/05/12 02:41:22;;;;;;;23.85;15.73;;;;;;;11.14;88.04;101024.81;10455655;28;20045;-73
2023/05/12 02:46:23;;;;;;;21.30;16.65;;;;;;;11.23;87.92;101009.75;10464470;28;20404;-72
2023/05/12 02:51:23;;;;;;;19.52;15.52;;;;;;;11.46;87.28;101020.66;10456942;28;20044;-72
2023/05/12 02:56:24;;;;;;;19.02;15.30;;;;;;;11.28;86.66;100960.41;10451655;28;20052;-72
2023/05/12 03:01:25;;;;;;;20.90;15.60;;;;;;;11.78;85.99;101014.69;10453875;28;20048;-72
2023/05/12 03:06:26;;;;;;;18.95;14.70;;;;;;;11.95;85.45;101016.47;10453799;28;20036;-72
2023/05/12 03:11:27;;;;;;;16.75;14.05;;;;;;;12.64;83.02;100937.19;10454031;28;20079;-73
2023/05/12 03:16:27;;;;;;;17.35;12.90;;;;;;;13.52;81.84;101004.94;10453139;28;20041;-73
2023/05/12 03:21:28;;;;;;;15.43;12.57;;;;;;;14.93;78.50;100991.50;10452923;28;20124;-73
2023/05/12 03:26:29;;;;;;;14.98;11.77;;;;;;;16.05;75.00;100994.94;10455288;28;20056;-72
2023/05/12 03:31:30;;;;;;;14.70;10.75;;;;;;;17.21;70.83;100976.06;10471614;28;20055;-72
2023/05/12 03:36:30;;;;;;;14.88;10.35;;;;;;;17.89;67.77;100943.97;10460308;28;20052;-72
2023/05/12 03:41:31;;;;;;;12.15;8.70;;;;;;;19.23;63.80;101018.50;10471085;28;20040;-72
2023/05/12 03:46:32;;;;;;;10.50;8.80;;;;;;;19.27;60.86;100952.44;10460609;28;20435;-72
2023/05/12 03:51:33;;;;;;;13.20;8.50;;;;;;;20.44;59.73;101024.16;10470377;28;20036;-72
2023/05/12 03:56:34;;;;;;;12.32;9.18;;;;;;;20.49;57.60;101028.91;10472052;28;20087;-72
2023/05/12 04:01:35;;;;;;;9.98;8.75;;;;;;;20.10;56.79;101025.34;10479160;28;20457;-72
2023/05/12 04:06:35;;;;;;;11.82;8.80;;;;;;;19.84;57.02;101035.22;10479371;28;20398;-72
2023/05/12 04:11:36;;;;;;;10.00;7.20;;;;;;;19.78;55.79;101033.38;10470374;28;20040;-73
2023/05/12 04:16:39;;;;;;;10.40;7.63;;;;;;;19.86;55.20;101004.50;10472322;28;20048;-72
2023/05/12 04:21:40;;;;;;;8.35;7.35;;;;;;;20.44;53.83;101026.88;10465986;28;20049;-72
2023/05/12 04:26:40;;;;;;;7.07;6.38;;;;;;;20.29;53.75;100958.88;10467071;28;20471;-72
2023/05/12 04:31:41;;;;;;;11.52;7.50;;;;;;;20.18;53.11;100964.97;10485515;28;20040;-72
2023/05/12 04:36:42;;;;;;;7.45;5.85;;;;;;;20.39;52.21;100999.69;10500203;28;20082;-72
2023/05/12 04:41:43;;;;;;;10.93;6.38;;;;;;;20.56;50.81;101012.72;10458578;28;20047;-72
2023/05/12 04:46:43;;;;;;;8.65;6.60;;;;;;;20.15;50.64;101022.84;10454400;28;20036;-72
2023/05/12 04:51:44;;;;;;;8.77;5.93;;;;;;;19.35;50.55;100958.41;10457554;28;20059;-71
2023/05/12 04:56:45;;;;;;;8.93;5.13;;;;;;;19.53;49.75;101016.19;10458362;28;20063;-72
2023/05/12 05:01:46;;;;;;;8.13;5.63;;;;;;;19.29;49.78;101005.03;10463752;28;20526;-72
2023/05/12 05:06:47;;;;;;;9.00;6.47;;;;;;;18.43;51.34;100996.91;10495160;28;20036;-72
2023/05/12 05:11:47;;;;;;;7.25;5.82;;;;;;;17.75;52.12;100935.03;10498025;28;20051;-71
2023/05/12 05:16:48;;;;;;;7.93;5.32;;;;;;;17.70;51.71;100986.69;10484218;28;20123;-73
2023/05/12 05:21:49;;;;;;;8.18;5.35;;;;;;;17.41;52.12;101014.63;10469977;28;20094;-72
2023/05/12 05:26:50;;;;;;;8.50;5.68;;;;;;;17.60;52.36;101010.41;10470961;28;20045;-73
2023/05/12 05:31:51;;;;;;;10.52;4.97;;;;;;;17.69;52.37;101019.94;10468366;28;20049;-72
2023/05/12 05:36:52;;;;;;;6.00;4.63;;;;;;;17.57;52.26;101016.16;10458061;28;20076;-73
2023/05/12 05:41:52;;;;;;;8.05;4.88;;;;;;;17.82;52.13;101003.09;10468834;28;20080;-72
2023/05/12 05:46:53;;;;;;;16.23;4.57;;;;;;;17.95;51.62;100964.72;10472695;28;20048;-73
2023/05/12 05:51:54;;;;;;;6.38;4.43;;;;;;;18.02;51.72;100987.06;10494443;28;20457;-71
2023/05/12 05:56:55;;;;;;;8.45;6.25;;;;;;;18.29;51.75;100984.47;10455140;28;20057;-73
2023/05/12 06:01:55;;;;;;;13.00;3.92;;;;;;;18.52;50.93;100978.69;10454949;28;20044;-72
2023/05/12 06:06:56;;;;;;;4.72;3.80;;;;;;;18.45;50.67;100979.50;10455111;28;20036;-72
2023/05/12 06:11:57;;;;;;;5.70;3.17;;;;;;;18.18;51.05;100953.59;10469145;28;20056;-72
2023/05/12 06:16:57;;;;;;;10.38;3.33;;;;;;;18.60;50.25;100973.94;10474999;28;20040;-71
2023/05/12 06:21:58;;;;;;;6.15;3.15;;;;;;;18.87;49.68;100976.69;10465627;28;20531;-73
2023/05/12 06:27:00;;;;;;;3.70;2.42;;;;;;;19.04;49.06;100969.03;10475934;28;20051;-72
2023/05/12 06:32:00;;;;;;;5.63;2.63;;;;;;;19.10;48.41;100970.88;10475001;28;20531;-72
2023/05/12 06:37:01;;;;;;;6.57;2.80;;;;;;;19.53;47.77;100987.41;10465602;28;20047;-72
2023/05/12 06:42:02;;;;;;;2.78;1.80;;;;;;;19.84;46.86;100975.09;10455005;28;20480;-71
2023/05/12 06:47:03;;;;;;;5.78;1.92;;;;;;;19.69;45.94;100964.56;10468289;28;20079;-71
2023/05/12 06:52:05;;;;;;;3.83;2.45;;;;;;;19.79;44.93;100973.00;10474195;28;20067;-73
2023/05/12 06:57:06;;;;;;;3.75;1.80;;;;;;;19.86;44.19;100950.59;10464610;28;20503;-72
2023/05/12 07:02:07;;;;;;;5.78;2.90;;;;;;;19.88;43.74;100953.91;10467252;28;20088;-71
2023/05/12 07:07:07;;;;;;;4.00;1.73;;;;;;;20.16;43.26;100937.34;10481730;28;20051;-72
2023/05/12 07:12:08;;;;;;;16.58;3.92;;;;;;;20.07;43.90;100901.72;10476752;28;20052;-72
2023/05/12 07:17:09;;;;;;;4.60;1.98;;;;;;;20.21;43.05;100875.50;10478341;28;20064;-72
2023/05/12 07:22:10;;;;;;;4.07;1.88;;;;;;;20.32;42.78;100922.53;10485616;28;20056;-72
2023/05/12 07:27:10;;;;;;;2.08;1.33;;;;;;;20.41;42.93;100945.53;10473607;28;20408;-72
2023/05/12 07:32:12;;;;;;;9.52;1.95;;;;;;;20.61;42.45;100938.13;10471924;28;20521;-72
2023/05/12 07:37:13;;;;;;;3.47;1.73;;;;;;;20.64;42.51;100942.25;10466852;28;20041;-72
2023/05/12 07:42:13;;;;;;;4.90;1.63;;;;;;;20.82;42.17;100949.56;10485761;28;20056;-72
2023/05/12 07:47:14;;;;;;;14.70;2.47;;;;;;;20.95;41.93;100938.69;10485960;28;20052;-71
2023/05/12 07:52:15;;;;;;;5.95;1.80;;;;;;;20.98;41.09;100940.94;10459868;28;20087;-72
2023/05/12 07:57:16;;;;;;;4.13;1.95;;;;;;;20.37;41.49;100939.75;10460143;28;20060;-72
2023/05/12 08:02:17;;;;;;;3.70;2.05;;;;;;;20.66;42.53;100950.97;10471605;28;20477;-73
2023/05/12 08:07:17;;;;;;;2.60;1.77;;;;;;;20.56;42.02;100891.25;10466769;28;20041;-72
2023/05/12 08:12:18;;;;;;;4.05;1.77;;;;;;;21.09;41.46;100944.75;10459682;28;20123;-74
2023/05/12 08:17:19;;;;;;;5.97;1.85;;;;;;;21.09;40.94;100933.94;10459617;28;20041;-73
2023/05/12 08:22:19;;;;;;;3.67;1.70;;;;;;;20.23;41.91;100862.63;10458849;28;20413;-74
2023/05/12 08:27:20;;;;;;;4.82;1.60;;;;;;;20.40;42.80;100931.22;10459109;28;20515;-73
2023/05/12 08:32:21;;;;;;;3.88;2.00;;;;;;;21.18;42.84;100911.84;10458773;28;20033;-74
2023/05/12 08:37:22;;;;;;;4.78;1.70;;;;;;;21.50;41.74;100911.72;10458726;28;20045;-73
2023/05/12 08:42:22;;;;;;;3.05;1.40;;;;;;;20.78;41.66;100852.00;10458606;28;20508;-73
2023/05/12 08:47:24;;;;;;;4.57;1.85;;;;;;;20.69;41.66;100891.94;10458426;28;20518;-75
2023/05/12 08:52:30;;;;;;;2.67;1.80;;;;;;;20.48;41.21;100855.34;10458215;28;20072;-75
2023/05/12 08:57:32;;;;;;;3.45;1.60;;;;;;;21.23;41.20;100907.63;10457397;28;20057;-74
2023/05/12 09:02:36;;;;;;;2.05;1.13;;;;;;;21.38;40.59;100900.00;10457707;28;20097;-74
2023/05/12 09:07:42;;;;;;;3.35;1.10;;;;;;;21.16;39.94;100895.03;10457733;28;20048;-73
2023/05/12 09:12:48;;;;;;;3.10;1.60;;;;;;;21.38;40.52;100900.00;10457515;28;20414;-72
2023/05/12 09:17:49;;;;;;;2.60;1.48;;;;;;;21.73;39.76;100891.28;10457377;28;20049;-72
2023/05/12 09:22:50;;;;;;;5.15;1.77;;;;;;;21.77;39.43;100898.69;10457171;28;20048;-76
2023/05/12 09:27:55;;;;;;;3.53;1.83;;;;;;;21.89;38.71;100879.78;10456013;28;20124;-74
2023/05/12 09:33:10;;;;;;;7.63;2.08;;;;;;;22.13;38.53;100896.09;10456705;28;20116;-73
2023/05/12 09:38:13;;;;;;;4.97;1.42;;;;;;;22.02;38.37;100887.75;10455862;28;20040;-73
2023/05/12 09:43:15;;;;;;;3.92;1.00;;;;;;;22.00;38.56;100897.94;10456168;28;20128;-73
2023/05/12 09:48:16;;;;;;;2.22;1.35;;;;;;;21.80;38.00;100843.31;10455836;28;20044;-72
2023/05/12 09:53:19;;;;;;;4.03;1.38;;;;;;;22.41;38.52;100898.22;10455280;28;20389;-73
2023/05/12 09:58:20;;;;;;;2.20;1.33;;;;;;;22.25;38.77;100889.69;10455921;28;20068;-73
2023/05/12 10:03:25;;;;;;;3.25;1.45;;;;;;;22.41;37.95;100898.22;10454277;28;20048;-72
2023/05/12 10:08:51;;;;;;;4.50;1.63;;;;;;;22.15;38.07;100888.59;10454784;28;20045;-73
2023/05/12 10:13:53;;;;;;;3.85;1.20;;;;;;;21.99;38.76;100893.59;10453928;28;20098;-72
2023/05/12 10:18:55;;;;;;;2.90;1.30;;;;;;;22.17;38.07;100876.53;10454948;28;20475;-73
2023/05/12 10:23:56;;;;;;;6.07;1.45;;;;;;;21.97;38.10;100874.06;10454757;28;20523;-75
2023/05/12 10:28:58;;;;;;;2.00;1.10;;;;;;;21.79;38.28;100876.84;10454307;28;20090;-74
2023/05/12 10:34:01;;;;;;;2.42;1.20;;;;;;;21.95;37.80;100865.34;10454647;28;20622;-75
2023/05/12 10:39:05;;;;;;;8.10;5.20;;;;;;;20.74;38.64;100780.59;10454396;28;20428;-75
2023/05/12 10:44:06;;;;;;;2.67;1.40;;;;;;;20.27;39.50;100788.28;10455043;28;20390;-73
2023/05/12 10:49:09;;;;;;;8.18;1.50;;;;;;;21.31;39.40;100848.72;10454215;28;20037;-73
2023/05/12 10:54:17;;;;;;;2.47;1.40;;;;;;;21.98;38.56;100850.53;10457074;28;20055;-73
2023/05/12 10:59:23;;;;;;;2.78;1.10;;;;;;;22.29;37.37;100811.59;10486617;28;20114;-73
2023/05/12 11:04:36;;;;;;;2.28;1.17;;;;;;;22.54;37.32;100851.97;10494671;28;20040;-73
2023/05/12 11:09:44;;;;;;;3.57;1.13;;;;;;;22.71;36.64;100847.50;10495020;28;20064;-73
2023/05/12 11:14:46;;;;;;;1.98;0.88;;;;;;;21.73;37.66;100781.22;10495377;28;20040;-73
2023/05/12 11:19:49;;;;;;;3.20;1.20;;;;;;;21.83;38.20;100854.50;10495373;28;20037;-72
2023/05/12 11:24:51;;;;;;;2.13;1.20;;;;;;;21.85;37.50;100832.63;10495084;28;20048;-71
2023/05/12 11:29:59;;;;;;;2.58;1.20;;;;;;;22.19;36.72;100846.50;10495009;28;20462;-73
2023/05/12 11:35:20;;;;;;;5.82;1.55;;;;;;;22.50;36.26;100843.50;10494955;28;20048;-74
2023/05/12 11:40:22;;;;;;;4.30;1.25;;;;;;;22.67;36.36;100837.34;10493895;28;20052;-76
2023/05/12 11:45:28;;;;;;;1.38;0.90;;;;;;;22.43;35.59;100828.41;10469637;28;20036;-73
2023/05/12 11:50:29;;;;;;;2.28;0.80;;;;;;;21.83;36.86;100827.44;10474836;28;20508;-74
2023/05/12 11:55:30;;;;;;;1.45;0.82;;;;;;;21.71;36.91;100802.25;10457338;28;20064;-74
2023/05/12 12:00:34;;;;;;;4.43;1.08;;;;;;;22.21;36.26;100817.34;10476300;28;20500;-74
2023/05/12 12:05:35;;;;;;;2.33;0.90;;;;;;;22.11;35.72;100817.88;10475168;28;20044;-74
2023/05/12 12:10:36;;;;;;;2.03;1.10;;;;;;;21.39;36.90;100734.13;10468522;28;20040;-74
2023/05/12 12:15:37;;;;;;;18.60;10.52;;;;;;;20.75;37.22;100669.66;10459790;28;20048;-73
2023/05/12 12:20:38;;;;;;;4.78;2.85;;;;;;;21.27;36.83;100809.69;10480232;28;20040;-75
2023/05/12 12:25:39;;;;;;;5.90;2.05;;;;;;;21.25;36.70;100800.97;10466499;28;20056;-75
2023/05/12 12:30:40;;;;;;;8.40;1.73;;;;;;;21.32;36.57;100804.41;10472025;28;20048;-74
2023/05/12 12:35:40;;;;;;;14.85;1.60;;;;;;;21.20;36.60;100798.13;10480061;28;20126;-74
2023/05/12 12:40:41;;;;;;;3.17;1.30;;;;;;;20.93;37.38;100803.84;10472900;28;20064;-74
2023/05/12 12:45:42;;;;;;;7.57;1.60;;;;;;;21.11;37.35;100794.09;10480487;28;20037;-75
2023/05/12 12:50:43;;;;;;;13.77;2.38;;;;;;;21.47;37.08;100795.94;10470189;28;20544;-73
2023/05/12 12:55:43;;;;;;;2.50;1.30;;;;;;;21.73;36.33;100791.22;10477157;28;20063;-73
2023/05/12 13:00:44;;;;;;;3.65;1.40;;;;;;;21.63;35.63;100697.97;10470528;28;20044;-73
2023/05/12 13:05:46;;;;;;;3.95;1.13;;;;;;;21.85;35.87;100719.88;10478207;28;20273;-73
2023/05/12 13:10:46;;;;;;;3.45;1.50;;;;;;;22.00;36.18;100788.94;10477439;28;20037;-74
2023/05/12 13:15:47;;;;;;;3.67;1.55;;;;;;;21.75;36.73;100798.03;10491607;28;20131;-73
2023/05/12 13:20:48;;;;;;;2.85;1.10;;;;;;;21.31;36.87;100734.41;10463205;28;20126;-72
2023/05/12 13:25:50;;;;;;;2.72;1.17;;;;;;;21.75;37.15;100781.00;10456831;28;20041;-72
2023/05/12 13:30:51;;;;;;;7.53;1.80;;;;;;;21.97;37.13;100790.22;10457226;28;20043;-73
2023/05/12 13:35:53;;;;;;;8.60;1.65;;;;;;;22.00;36.72;100781.63;10456700;28;20037;-72
2023/05/12 13:40:54;;;;;;;3.42;1.85;;;;;;;22.05;36.20;100770.13;10456666;28;20048;-72
2023/05/12 13:45:55;;;;;;;4.05;1.50;;;;;;;21.82;35.99;100777.13;10455599;28;20045;-72
2023/05/12 13:50:56;;;;;;;5.82;1.30;;;;;;;21.63;37.58;100775.56;10455299;28;20098;-72
2023/05/12 13:55:57;;;;;;;2.10;1.10;;;;;;;21.47;35.78;100730.25;10456104;28;20052;-73
2023/05/12 14:00:58;;;;;;;3.92;1.15;;;;;;;21.91;35.30;100774.09;10455704;28;20048;-72
2023/05/12 14:05:59;;;;;;;8.02;1.40;;;;;;;21.85;35.54;100768.53;10455412;28;20074;-73
2023/05/12 14:11:00;;;;;;;1.95;0.80;;;;;;;21.74;35.21;100768.53;10454526;28;20509;-72
2023/05/12 14:16:00;;;;;;;18.60;2.00;;;;;;;21.48;35.53;100742.69;10454962;28;20043;-72
2023/05/12 14:21:01;;;;;;;14.52;2.38;;;;;;;20.90;35.60;100692.75;10460071;28;20045;-73
2023/05/12 14:26:03;;;;;;;5.35;1.00;;;;;;;20.60;35.85;100660.31;10484829;28;20423;-72
2023/05/12 14:31:04;;;;;;;2.67;1.00;;;;;;;21.26;35.91;100764.78;10463667;28;20094;-73
2023/05/12 14:36:05;;;;;;;7.10;1.48;;;;;;;20.70;35.65;100671.41;10474369;28;20532;-72
2023/05/12 14:41:07;;;;;;;2.38;1.10;;;;;;;20.97;35.48;100731.31;10454007;28;20072;-73
2023/05/12 14:46:08;;;;;;;3.03;0.95;;;;;;;20.95;35.71;100736.94;10454210;28;20065;-72
2023/05/12 14:51:08;;;;;;;2.20;1.00;;;;;;;20.79;35.62;100745.66;10454058;28;20472;-73
2023/05/12 14:56:09;;;;;;;6.55;1.20;;;;;;;20.74;35.95;100740.09;10453473;28;20421;-74
2023/05/12 15:01:11;;;;;;;2.97;1.13;;;;;;;20.70;36.24;100722.69;10453484;28;20091;-72
2023/05/12 15:06:12;;;;;;;10.07;4.50;;;;;;;20.79;37.61;100748.38;10454165;28;20047;-72
2023/05/12 15:11:12;;;;;;;7.78;3.13;;;;;;;20.41;41.33;100738.56;10452812;28;20136;-73
2023/05/12 15:16:13;;;;;;;4.20;2.53;;;;;;;20.00;43.62;100760.72;10452705;28;20037;-73
2023/05/12 15:21:14;;;;;;;5.15;2.67;;;;;;;19.33;45.49;100728.81;10452896;28;20045;-72
2023/05/12 15:26:15;;;;;;;5.80;2.97;;;;;;;18.59;46.79;100668.25;10459970;28;20037;-74
2023/05/12 15:31:15;;;;;;;7.38;2.80;;;;;;;18.90;47.73;100763.59;10461721;28;20048;-73
2023/05/12 15:36:16;;;;;;;4.88;2.90;;;;;;;18.63;48.37;100742.13;10460542;28;20524;-73
2023/05/12 15:41:18;;;;;;;5.45;2.45;;;;;;;18.66;48.64;100768.59;10465705;28;20041;-71
2023/05/12 15:46:18;;;;;;;13.93;3.20;;;;;;;18.48;49.46;100760.38;10476540;28;20056;-74
2023/05/12 15:51:19;;;;;;;5.45;3.00;;;;;;;18.09;50.31;100740.56;10478410;28;20044;-72
2023/05/12 15:56:21;;;;;;;7.13;3.55;;;;;;;18.00;50.79;100752.56;10478560;28;20056;-71
2023/05/12 16:01:23;;;;;;;4.10;2.83;;;;;;;17.86;51.48;100762.50;10473606;28;20038;-74
2023/05/12 16:06:24;;;;;;;5.57;2.97;;;;;;;17.74;52.37;100785.59;10482475;28;20193;-71
2023/05/12 16:11:25;;;;;;;10.13;3.15;;;;;;;17.44;53.07;100777.88;10484101;28;20044;-70
2023/05/12 16:16:26;;;;;;;35.38;5.50;;;;;;;17.26;54.09;100786.50;10477834;28;20056;-72
2023/05/12 16:21:26;;;;;;;15.02;3.60;;;;;;;16.66;55.05;100729.00;10479750;28;20040;-71
2023/05/12 16:26:28;;;;;;;14.00;3.45;;;;;;;16.85;55.62;100791.88;10476220;28;20043;-71
2023/05/12 16:31:31;;;;;;;3.90;2.92;;;;;;;16.62;56.14;100790.25;10476833;28;20032;-72
2023/05/12 16:36:32;;;;;;;6.43;3.60;;;;;;;16.49;56.89;100813.50;10482744;28;20055;-71
2023/05/12 16:41:34;;;;;;;23.40;11.57;;;;;;;16.24;57.64;100813.91;10479386;28;20378;-72
2023/05/12 16:46:34;;;;;;;29.13;7.85;;;;;;;15.55;58.50;100736.78;10474705;28;20040;-72
2023/05/12 16:51:35;;;;;;;93.88;35.90;;;;;;;15.77;59.18;100814.53;10480363;28;20044;-72
2023/05/12 16:56:36;;;;;;;74.00;33.72;;;;;;;15.68;60.06;100832.56;10479345;28;20636;-72
2023/05/12 17:01:38;;;;;;;50.75;21.38;;;;;;;15.18;60.92;100781.50;10477505;28;20098;-72
2023/05/12 17:06:38;;;;;;;71.18;30.08;;;;;;;15.35;61.52;100840.19;10480413;28;20086;-72
2023/05/12 17:11:39;;;;;;;58.53;28.98;;;;;;;15.20;62.69;100850.91;10477064;28;20516;-73
2023/05/12 17:16:40;;;;;;;66.85;31.92;;;;;;;15.05;62.87;100849.06;10475774;28;20051;-72
2023/05/12 17:21:41;;;;;;;77.90;37.83;;;;;;;14.88;62.71;100846.75;10473297;28;20044;-73
2023/05/12 17:26:42;;;;;;;53.25;28.20;;;;;;;14.46;63.48;100842.78;10491782;28;20123;-72
2023/05/12 17:31:42;;;;;;;43.53;20.83;;;;;;;13.92;64.61;100788.44;10485011;28;20036;-72
2023/05/12 17:36:43;;;;;;;64.88;25.67;;;;;;;14.33;65.52;100848.75;10482232;28;20385;-71
2023/05/12 17:41:44;;;;;;;46.55;22.02;;;;;;;14.30;65.91;100854.47;10472652;28;20040;-69
2023/05/12 17:46:45;;;;;;;51.25;22.55;;;;;;;14.14;66.26;100858.06;10471815;28;20047;-71
2023/05/12 17:51:46;;;;;;;73.45;23.30;;;;;;;13.38;66.84;100775.16;10455591;28;20048;-71
2023/05/12 17:56:46;;;;;;;84.93;29.48;;;;;;;13.62;67.86;100872.94;10455034;28;20508;-71
2023/05/12 18:01:48;;;;;;;75.95;27.63;;;;;;;13.54;68.13;100864.94;10456670;28;20041;-71
2023/05/12 18:06:49;;;;;;;60.83;23.60;;;;;;;13.28;68.09;100806.53;10455468;28;20128;-71
2023/05/12 18:11:49;;;;;;;57.75;23.45;;;;;;;13.58;68.65;100894.78;10455302;28;20378;-71
2023/05/12 18:16:51;;;;;;;89.28;39.30;;;;;;;13.43;69.75;100889.34;10458491;28;20052;-71
2023/05/12 18:21:52;;;;;;;56.50;25.52;;;;;;;13.39;70.21;100888.03;10473657;28;20041;-71
2023/05/12 18:26:53;;;;;;;90.78;44.60;;;;;;;13.11;70.10;100850.28;10465613;28;20067;-71
2023/05/12 18:31:54;;;;;;;70.75;32.78;;;;;;;13.24;70.11;100878.06;10475568;28;20047;-71
2023/05/12 18:36:56;;;;;;;64.78;31.40;;;;;;;13.40;70.14;100895.03;10495584;28;20052;-71
2023/05/12 18:41:57;;;;;;;44.85;21.17;;;;;;;13.28;70.31;100891.09;10462269;28;20500;-71
2023/05/12 18:46:58;;;;;;;27.65;13.82;;;;;;;13.30;70.22;100887.25;10454683;28;20075;-70
2023/05/12 18:51:58;;;;;;;27.88;11.57;;;;;;;13.31;69.84;100872.91;10454702;28;20071;-70
2023/05/12 18:57:00;;;;;;;33.50;15.00;;;;;;;13.48;69.81;100871.00;10454332;28;20559;-70
2023/05/12 19:02:02;;;;;;;29.33;11.20;;;;;;;13.44;69.31;100857.16;10462381;28;20094;-71
2023/05/12 19:07:05;;;;;;;29.02;11.45;;;;;;;13.31;69.84;100848.91;10462817;28;20041;-71
2023/05/12 19:12:09;;;;;;;31.95;14.38;;;;;;;13.29;70.38;100861.56;10461522;28;20409;-71
2023/05/12 19:17:10;;;;;;;;;;;;;;;13.36;69.73;100861.72;10462524;28;20052;-71
2023/05/12 19:22:11;;;;;;;52.00;23.58;;;;;;;13.12;70.05;100876.75;10461374;28;19917;-71
2023/05/12 19:27:11;;;;;;;46.80;22.60;;;;;;;12.84;70.73;100799.03;10461507;28;20037;-70
2023/05/12 19:32:12;;;;;;;44.60;21.80;;;;;;;12.57;70.82;100746.97;10461703;28;20401;-71
2023/05/12 19:37:13;;;;;;;44.10;18.58;;;;;;;13.13;71.15;100856.25;10472091;28;20489;-71
2023/05/12 19:42:14;;;;;;;41.58;15.75;;;;;;;13.10;71.24;100849.47;10460630;28;20045;-70
2023/05/12 19:47:16;;;;;;;26.45;13.00;;;;;;;13.06;71.38;100842.78;10460236;28;20517;-71
2023/05/12 19:52:16;;;;;;;25.80;12.25;;;;;;;12.95;71.74;100814.66;10459311;28;20040;-71
2023/05/12 19:57:18;;;;;;;25.15;12.63;;;;;;;13.10;72.09;100848.59;10460351;28;20061;-71
2023/05/12 20:02:19;;;;;;;22.73;11.48;;;;;;;13.10;71.92;100840.59;10460202;28;20084;-71
2023/05/12 20:07:20;;;;;;;27.92;12.60;;;;;;;13.12;72.16;100830.59;10460027;28;20134;-71
2023/05/12 20:12:21;;;;;;;36.75;15.57;;;;;;;13.26;72.71;100848.59;10459883;28;20119;-71
2023/05/12 20:17:22;;;;;;;57.47;22.58;;;;;;;13.23;72.70;100857.72;10459829;28;20036;-71
2023/05/12 20:22:22;;;;;;;66.15;26.83;;;;;;;13.14;73.15;100825.94;10466466;28;20048;-71
2023/05/12 20:27:23;;;;;;;47.05;20.55;;;;;;;13.19;73.51;100843.09;10500207;28;20052;-71
2023/05/12 20:32:24;;;;;;;37.65;17.88;;;;;;;13.02;73.65;100833.47;10500738;28;20071;-71
2023/05/12 20:37:25;;;;;;;45.78;18.08;;;;;;;12.98;73.93;100845.47;10499634;28;20059;-71
2023/05/12 20:42:26;;;;;;;32.35;18.83;;;;;;;12.82;75.22;100853.53;10492577;28;20033;-71
2023/05/12 20:47:26;;;;;;;31.05;17.85;;;;;;;12.15;75.88;100765.88;10463921;28;20064;-71
2023/05/12 20:52:28;;;;;;;35.15;19.33;;;;;;;12.64;76.45;100851.88;10458529;28;20047;-71
2023/05/12 20:57:29;;;;;;;37.85;17.92;;;;;;;12.62;76.52;100853.88;10458369;28;20102;-71
2023/05/12 21:02:29;;;;;;;45.20;18.42;;;;;;;12.53;77.31;100853.09;10457205;28;20397;-71
2023/05/12 21:07:31;;;;;;;31.33;17.08;;;;;;;12.25;77.85;100825.94;10457817;28;20378;-71
2023/05/12 21:12:32;;;;;;;34.50;17.83;;;;;;;12.29;78.37;100848.59;10457613;28;20105;-70
2023/05/12 21:17:32;;;;;;;32.28;15.95;;;;;;;12.29;78.12;100847.75;10456920;28;20040;-71
2023/05/12 21:22:34;;;;;;;30.58;15.95;;;;;;;12.31;78.09;100835.09;10456073;28;20174;-71
2023/05/12 21:27:41;;;;;;;27.88;14.88;;;;;;;12.34;79.78;100848.91;10456812;28;20454;-71
2023/05/12 21:32:43;;;;;;;34.42;15.20;;;;;;;12.31;77.90;100843.91;10456556;28;20037;-71
2023/05/12 21:37:44;;;;;;;33.03;13.70;;;;;;;12.36;77.70;100840.75;10456407;28;20128;-71
2023/05/12 21:42:44;;;;;;;25.92;12.85;;;;;;;12.04;77.29;100783.84;10456583;28;20131;-71
2023/05/12 21:47:48;;;;;;;25.27;13.10;;;;;;;12.43;77.04;100839.09;10455527;28;20128;-70
2023/05/12 21:52:49;;;;;;;19.40;11.40;;;;;;;12.11;76.66;100749.38;10455381;28;20447;-71
2023/05/12 21:57:50;;;;;;;18.08;9.80;;;;;;;12.68;75.98;100820.38;10455085;28;20060;-71
2023/05/12 22:02:51;;;;;;;17.35;7.97;;;;;;;12.80;75.30;100827.00;10455239;28;20106;-71
2023/05/12 22:07:51;;;;;;;17.42;6.50;;;;;;;12.95;74.29;100816.47;10455432;28;20385;-71
2023/05/12 22:12:52;;;;;;;10.43;5.13;;;;;;;12.58;72.53;100729.97;10454664;28;20044;-71
2023/05/12 22:17:53;;;;;;;12.65;5.43;;;;;;;13.14;71.74;100808.09;10453309;28;20131;-71
2023/05/12 22:22:54;;;;;;;10.55;4.68;;;;;;;12.67;70.99;100717.44;10454411;28;20048;-71
2023/05/12 22:27:55;;;;;;;6.50;3.60;;;;;;;13.24;69.86;100784.69;10453699;28;20036;-70
2023/05/12 22:32:56;;;;;;;9.10;2.70;;;;;;;13.40;68.42;100793.63;10454509;28;20049;-71
2023/05/12 22:37:56;;;;;;;8.52;3.38;;;;;;;13.22;67.73;100769.84;10455338;28;20124;-71
2023/05/12 22:42:57;;;;;;;5.03;2.75;;;;;;;13.38;67.28;100788.47;10473425;28;20480;-71
2023/05/12 22:47:58;;;;;;;4.90;2.38;;;;;;;13.45;66.49;100791.28;10495547;28;20037;-71